Time;durP1;ratioP1;P1;durP2;ratioP2;P2;SDS_P1;SDS_P2;PMS_P1;PMS_P2;Temp;Humidity;BMP_temperature;BMP_pressure;BME280_temperature;BME280_humidity;BME280_pressure;Samples;Min_cycle;Max_cycle;Signal;HPM_P1;HPM_P2
2021/09/21 00:00:43;;;;;;;13.98;9.30;;;;;;;7.88;100.00;102554.69;5062152;28;20043;-80
2021/09/21 00:03:09;;;;;;;12.60;9.38;;;;;;;7.81;100.00;102543.72;5072301;28;20044;-80
2021/09/21 00:05:36;;;;;;;15.43;9.98;;;;;;;7.88;100.00;102554.69;5067459;28;20032;-80
2021/09/21 00:08:02;;;;;;;13.70;9.20;;;;;;;7.81;100.00;102548.97;5075364;28;20059;-80
2021/09/21 00:10:29;;;;;;;17.48;10.40;;;;;;;7.80;100.00;102542.06;5072841;28;20483;-80
2021/09/21 00:12:55;;;;;;;14.43;9.80;;;;;;;7.81;100.00;102554.19;5053766;28;20032;-82
2021/09/21 00:15:21;;;;;;;14.38;10.25;;;;;;;7.76;100.00;102553.59;5054683;28;20132;-79
2021/09/21 00:17:49;;;;;;;18.70;10.48;;;;;;;7.75;100.00;102554.53;5089991;28;20028;-80
2021/09/21 00:20:15;;;;;;;15.30;10.48;;;;;;;7.71;100.00;102553.00;5075310;28;20524;-80
2021/09/21 00:22:42;;;;;;;16.77;10.38;;;;;;;7.62;100.00;102548.28;5080919;28;20035;-79
2021/09/21 00:25:09;;;;;;;14.80;10.63;;;;;;;7.54;100.00;102561.75;5091872;28;20065;-81
2021/09/21 00:27:36;;;;;;;14.02;9.73;;;;;;;7.51;100.00;102554.91;5075180;28;20085;-80
2021/09/21 00:30:11;;;;;;;15.10;10.10;;;;;;;7.57;100.00;102564.19;5091289;28;20039;-80
2021/09/21 00:32:37;;;;;;;15.18;10.13;;;;;;;7.53;100.00;102565.28;5070933;28;20520;-80
2021/09/21 00:35:03;;;;;;;15.07;10.57;;;;;;;7.50;100.00;102568.06;5093846;28;20032;-80
2021/09/21 00:37:28;;;;;;;17.67;10.68;;;;;;;7.49;100.00;102568.97;5091434;28;20106;-81
2021/09/21 00:39:54;;;;;;;15.05;10.23;;;;;;;7.46;100.00;102563.91;5064333;28;20477;-81
2021/09/21 00:42:28;;;;;;;16.52;9.63;;;;;;;7.45;100.00;102562.25;5056691;28;20043;-78
2021/09/21 00:45:06;;;;;;;14.57;10.70;;;;;;;7.35;100.00;102554.06;5071323;28;20614;-77
2021/09/21 00:47:31;;;;;;;12.75;9.57;;;;;;;7.37;100.00;102557.44;5065456;28;20036;-80
2021/09/21 00:49:57;;;;;;;20.75;11.45;;;;;;;7.31;100.00;102552.50;5088542;28;20043;-77
2021/09/21 00:52:23;;;;;;;18.50;11.43;;;;;;;7.28;100.00;102545.69;5053539;28;20028;-79
2021/09/21 00:54:49;;;;;;;17.35;11.43;;;;;;;7.34;100.00;102547.97;5051083;28;20037;-79
2021/09/21 00:57:16;;;;;;;19.15;11.70;;;;;;;7.33;100.00;102546.31;5072397;28;20838;-81
2021/09/21 00:59:43;;;;;;;17.40;11.55;;;;;;;7.39;100.00;102547.75;5077660;28;20115;-81
2021/09/21 01:02:09;;;;;;;16.13;11.18;;;;;;;7.44;100.00;102545.75;5055252;28;20036;-78
2021/09/21 01:04:37;;;;;;;18.48;12.52;;;;;;;7.51;100.00;102549.69;5091483;28;20043;-80
2021/09/21 01:07:03;;;;;;;20.38;12.13;;;;;;;7.52;100.00;102556.59;5073225;28;20090;-78
2021/09/21 01:09:29;;;;;;;17.60;11.43;;;;;;;7.57;100.00;102551.13;5069054;28;20040;-79
2021/09/21 01:11:57;;;;;;;20.08;12.38;;;;;;;7.64;100.00;102539.44;5076850;28;20039;-79
2021/09/21 01:14:23;;;;;;;16.17;11.68;;;;;;;7.65;100.00;102541.13;5052021;28;20036;-79
2021/09/21 01:16:52;;;;;;;14.70;11.23;;;;;;;7.68;100.00;102551.38;5069491;28;20047;-78
2021/09/21 01:19:18;;;;;;;18.77;11.40;;;;;;;7.74;100.00;102545.00;5079524;28;20032;-79
2021/09/21 01:21:47;;;;;;;18.15;12.27;;;;;;;7.72;100.00;102539.88;5087586;28;20043;-80
2021/09/21 01:24:16;;;;;;;20.42;12.10;;;;;;;7.82;100.00;102549.78;5088330;28;20135;-81
2021/09/21 01:26:42;;;;;;;19.20;12.10;;;;;;;7.90;100.00;102548.47;5046897;28;20067;-79
2021/09/21 01:29:09;;;;;;;18.02;12.18;;;;;;;7.98;100.00;102530.56;5072958;28;20054;-80
2021/09/21 01:31:35;;;;;;;17.25;11.35;;;;;;;8.03;100.00;102546.00;5067942;28;20036;-79
2021/09/21 01:34:02;;;;;;;18.50;12.27;;;;;;;8.04;100.00;102552.06;5088861;28;20043;-81
2021/09/21 01:36:29;;;;;;;23.10;11.98;;;;;;;8.12;100.00;102542.06;5091500;28;20043;-79
2021/09/21 01:38:55;;;;;;;18.33;12.38;;;;;;;8.17;100.00;102545.22;5056952;28;20078;-79
2021/09/21 01:41:21;;;;;;;17.92;13.02;;;;;;;8.18;100.00;102541.69;5047314;28;20101;-79
2021/09/21 01:43:47;;;;;;;19.80;12.98;;;;;;;8.17;100.00;102540.00;5062638;28;20032;-79
2021/09/21 01:46:17;;;;;;;17.35;12.20;;;;;;;8.24;100.00;102541.34;5086350;28;20486;-79
2021/09/21 01:48:44;;;;;;;17.23;11.70;;;;;;;8.08;100.00;102510.00;5090788;28;20065;-80
2021/09/21 01:51:28;;;;;;;17.95;12.27;;;;;;;8.23;100.00;102539.66;5076879;28;20044;-79
2021/09/21 01:59:06;;;;;;;21.15;12.10;;;;;;;8.32;100.00;102533.06;5070567;28;20128;-79
2021/09/21 02:01:32;;;;;;;22.67;12.65;;;;;;;8.42;100.00;102534.25;5051335;28;20111;-79
2021/09/21 02:04:04;;;;;;;19.77;13.15;;;;;;;8.39;100.00;102530.00;5091331;28;20158;-79
2021/09/21 02:06:35;;;;;;;20.77;12.75;;;;;;;8.43;100.00;102529.88;5097442;28;20036;-80
2021/09/21 02:09:02;;;;;;;19.10;12.00;;;;;;;8.43;100.00;102516.78;5087484;28;20040;-80
2021/09/21 02:11:27;;;;;;;18.08;12.43;;;;;;;8.53;100.00;102517.91;5089159;28;20039;-79
2021/09/21 02:13:57;;;;;;;21.17;12.95;;;;;;;8.53;100.00;102516.16;5072317;28;20028;-80
2021/09/21 02:16:31;;;;;;;18.67;12.30;;;;;;;8.47;100.00;102510.44;5053412;28;20032;-78
2021/09/21 02:18:57;;;;;;;17.05;12.15;;;;;;;8.55;100.00;102530.00;5072529;28;20028;-79
2021/09/21 02:21:24;;;;;;;15.05;11.60;;;;;;;8.53;100.00;102525.75;5087511;28;20115;-78
2021/09/21 02:23:51;;;;;;;16.67;11.23;;;;;;;8.50;100.00;102510.28;5093785;28;20062;-79
2021/09/21 02:26:16;;;;;;;18.08;11.80;;;;;;;8.48;100.00;102506.91;5091677;28;20020;-79
2021/09/21 02:28:41;;;;;;;16.67;11.02;;;;;;;8.52;100.00;102519.69;5062618;28;20067;-78
2021/09/21 02:31:07;;;;;;;18.30;11.63;;;;;;;8.49;100.00;102519.03;5070065;28;20036;-78
2021/09/21 02:33:33;;;;;;;16.58;11.90;;;;;;;8.49;100.00;102519.88;5074883;28;20135;-79
2021/09/21 02:35:58;;;;;;;18.58;11.98;;;;;;;8.46;100.00;102519.22;5050766;28;20137;-79
2021/09/21 02:38:24;;;;;;;16.48;11.35;;;;;;;8.45;100.00;102512.31;5089046;28;20078;-82
2021/09/21 02:40:50;;;;;;;17.92;12.18;;;;;;;8.41;100.00;102513.38;5081492;28;20447;-78
2021/09/21 02:43:15;;;;;;;19.38;12.10;;;;;;;8.44;100.00;102521.94;5050914;28;20070;-79
2021/09/21 02:45:41;;;;;;;17.52;12.15;;;;;;;8.39;100.00;102509.06;5059785;28;20169;-79
2021/09/21 02:48:07;;;;;;;19.17;12.30;;;;;;;8.41;100.00;102529.91;5090241;28;20397;-80
2021/09/21 02:50:32;;;;;;;17.05;12.05;;;;;;;8.40;100.00;102536.09;5089215;28;20055;-79
2021/09/21 02:52:58;;;;;;;15.23;11.68;;;;;;;8.36;100.00;102539.78;5081058;28;20024;-80
2021/09/21 02:55:23;;;;;;;17.40;11.63;;;;;;;8.39;100.00;102542.22;5052596;28;20033;-80
2021/09/21 02:57:49;;;;;;;19.67;11.05;;;;;;;8.38;100.00;102545.75;5071452;28;20066;-80
2021/09/21 03:00:19;;;;;;;16.05;11.65;;;;;;;8.41;100.00;102566.53;5088350;28;20035;-79
2021/09/21 03:02:46;;;;;;;18.05;11.27;;;;;;;8.33;100.00;102560.91;5070514;28;20024;-78
2021/09/21 03:05:16;;;;;;;17.48;12.10;;;;;;;8.41;100.00;102584.81;5072823;28;20034;-79
2021/09/21 03:07:56;;;;;;;17.20;11.77;;;;;;;8.41;100.00;102570.91;5073279;28;20082;-80
2021/09/21 03:10:28;;;;;;;18.73;11.90;;;;;;;8.43;100.00;102569.09;5089157;28;20036;-78
2021/09/21 03:18:04;;;;;;;20.25;12.68;;;;;;;8.62;100.00;102584.56;5088192;28;20070;-80
2021/09/21 03:20:30;;;;;;;18.58;13.02;;;;;;;8.56;100.00;102568.28;5072525;28;20072;-82
2021/09/21 03:22:56;;;;;;;23.00;13.23;;;;;;;8.58;100.00;102566.41;5086908;28;20109;-81
2021/09/21 03:25:22;;;;;;;20.45;13.13;;;;;;;8.56;100.00;102570.91;5090119;28;20036;-79
2021/09/21 03:27:48;;;;;;;19.33;12.65;;;;;;;8.58;100.00;102568.19;5090853;28;20059;-79
2021/09/21 03:30:14;;;;;;;21.05;12.90;;;;;;;8.58;100.00;102560.34;5087863;28;20525;-79
2021/09/21 03:32:41;;;;;;;17.23;12.52;;;;;;;8.64;100.00;102570.44;5069832;28;20410;-81
2021/09/21 03:35:09;;;;;;;20.05;13.35;;;;;;;8.70;100.00;102570.13;5088335;28;20097;-81
2021/09/21 03:37:35;;;;;;;22.77;14.18;;;;;;;8.71;100.00;102565.72;5057719;28;20494;-80
2021/09/21 03:40:01;;;;;;;18.42;12.45;;;;;;;8.77;100.00;102575.81;5072967;28;20029;-79
2021/09/21 03:42:26;;;;;;;18.23;12.55;;;;;;;8.83;100.00;102577.22;5073076;28;20051;-81
2021/09/21 03:44:52;;;;;;;17.73;12.07;;;;;;;8.83;100.00;102564.97;5069923;28;20033;-83
2021/09/21 03:47:17;;;;;;;17.65;12.02;;;;;;;8.83;100.00;102559.75;5080900;28;20628;-80
2021/09/21 03:49:43;;;;;;;20.50;12.27;;;;;;;8.76;100.00;102566.31;5090355;28;20020;-80
2021/09/21 03:52:09;;;;;;;19.83;13.55;;;;;;;8.75;100.00;102569.84;5064768;28;20034;-80
2021/09/21 03:54:35;;;;;;;19.85;13.50;;;;;;;8.72;100.00;102559.53;5087889;28;20056;-80
2021/09/21 03:57:00;;;;;;;20.77;12.98;;;;;;;8.74;100.00;102570.78;5088812;28;20040;-81
2021/09/21 03:59:26;;;;;;;19.98;12.15;;;;;;;8.75;100.00;102567.22;5073775;28;20105;-79
2021/09/21 04:01:52;;;;;;;19.70;13.10;;;;;;;8.70;100.00;102564.88;5072337;28;20108;-81
2021/09/21 04:04:18;;;;;;;21.20;12.60;;;;;;;8.76;100.00;102579.38;5074626;28;20102;-81
2021/09/21 04:06:44;;;;;;;18.30;12.43;;;;;;;8.73;100.00;102563.84;5077189;28;20047;-82
2021/09/21 04:09:09;;;;;;;25.02;13.20;;;;;;;8.84;100.00;102577.16;5071723;28;20521;-81
2021/09/21 04:11:35;;;;;;;22.75;12.68;;;;;;;8.88;100.00;102577.81;5072393;28;20522;-80
2021/09/21 04:14:01;;;;;;;18.08;12.07;;;;;;;8.87;100.00;102579.59;5071218;28;20095;-81
2021/09/21 04:16:29;;;;;;;16.27;10.65;;;;;;;8.85;100.00;102581.44;5068396;28;20028;-80
2021/09/21 04:18:55;;;;;;;20.48;12.85;;;;;;;8.88;100.00;102580.44;5071519;28;20059;-81
2021/09/21 04:21:20;;;;;;;20.60;11.85;;;;;;;8.85;100.00;102578.81;5055449;28;20028;-82
2021/09/21 04:23:46;;;;;;;20.02;11.77;;;;;;;8.83;100.00;102567.59;5064845;28;20417;-81
2021/09/21 04:26:12;;;;;;;17.35;11.35;;;;;;;8.90;100.00;102570.72;5068579;28;20036;-80
2021/09/21 04:28:39;;;;;;;17.65;11.43;;;;;;;8.87;100.00;102571.75;5061693;28;20110;-80
2021/09/21 04:31:09;;;;;;;18.20;12.50;;;;;;;8.86;100.00;102564.81;5068595;28;20085;-80
2021/09/21 04:33:37;;;;;;;18.63;11.43;;;;;;;8.84;100.00;102561.44;5091627;28;20035;-80
2021/09/21 04:36:03;;;;;;;18.20;11.90;;;;;;;8.88;100.00;102557.72;5054693;28;20029;-82
2021/09/21 04:38:29;;;;;;;19.45;11.95;;;;;;;8.85;100.00;102557.88;5092893;28;20490;-80
2021/09/21 04:40:55;;;;;;;19.30;12.30;;;;;;;8.84;100.00;102568.47;5092722;28;20032;-79
2021/09/21 04:43:20;;;;;;;20.42;12.38;;;;;;;8.83;100.00;102559.75;5075042;28;20031;-79
2021/09/21 04:45:45;;;;;;;17.13;12.05;;;;;;;8.86;100.00;102569.22;5085545;28;20036;-80
2021/09/21 04:48:11;;;;;;;20.70;12.10;;;;;;;8.84;100.00;102576.31;5054956;28;20028;-80
2021/09/21 04:50:36;;;;;;;22.17;12.15;;;;;;;8.80;100.00;102566.94;5085723;28;20123;-81
2021/09/21 04:53:02;;;;;;;19.38;11.93;;;;;;;8.85;100.00;102583.22;5068188;28;20027;-81
2021/09/21 04:55:28;;;;;;;17.05;11.93;;;;;;;8.86;100.00;102585.75;5056456;28;20123;-80
2021/09/21 04:57:53;;;;;;;18.00;11.05;;;;;;;8.82;100.00;102579.00;5088073;28;20378;-79
2021/09/21 05:00:19;;;;;;;19.83;11.45;;;;;;;8.87;100.00;102578.72;5086583;28;20529;-81
2021/09/21 05:02:44;;;;;;;22.95;12.30;;;;;;;8.89;100.00;102569.00;5089332;28;20024;-80
2021/09/21 05:05:10;;;;;;;19.88;12.30;;;;;;;8.98;100.00;102562.41;5074544;28;20116;-81
2021/09/21 05:07:36;;;;;;;19.55;12.98;;;;;;;9.00;100.00;102569.22;5064467;28;20029;-80
2021/09/21 05:10:02;;;;;;;22.15;13.05;;;;;;;9.01;100.00;102596.25;5057589;28;20036;-79
2021/09/21 05:12:28;;;;;;;20.23;12.50;;;;;;;8.99;100.00;102595.50;5070422;28;20028;-79
2021/09/21 05:14:53;;;;;;;16.52;11.55;;;;;;;8.90;100.00;102589.03;5061072;28;20396;-81
2021/09/21 05:17:19;;;;;;;18.95;12.23;;;;;;;8.95;100.00;102600.91;5054939;28;20032;-78
2021/09/21 05:19:45;;;;;;;22.70;12.23;;;;;;;8.92;100.00;102600.25;5089528;28;20102;-79
2021/09/21 05:22:10;;;;;;;20.05;11.75;;;;;;;8.92;100.00;102600.25;5065854;28;20534;-78
2021/09/21 05:24:36;;;;;;;18.30;11.75;;;;;;;8.95;100.00;102600.06;5071587;28;20028;-79
2021/09/21 05:27:01;;;;;;;19.63;12.23;;;;;;;8.99;100.00;102600.75;5055459;28;20480;-79
2021/09/21 05:29:27;;;;;;;18.85;11.60;;;;;;;9.03;100.00;102597.00;5068148;28;20032;-79
2021/09/21 05:31:52;;;;;;;18.45;12.00;;;;;;;9.03;100.00;102592.59;5087131;28;20043;-79
2021/09/21 05:34:18;;;;;;;19.00;12.25;;;;;;;9.05;100.00;102582.88;5090718;28;20494;-80
2021/09/21 05:36:43;;;;;;;18.90;12.13;;;;;;;9.04;100.00;102586.44;5054015;28;20218;-82
2021/09/21 05:39:09;;;;;;;21.45;13.23;;;;;;;9.08;100.00;102587.94;5040389;28;20035;-81
2021/09/21 05:41:34;;;;;;;20.90;12.15;;;;;;;9.06;100.00;102591.56;5057427;28;20044;-79
2021/09/21 05:44:00;;;;;;;18.92;11.85;;;;;;;9.10;100.00;102593.94;5069192;28;20387;-80
2021/09/21 05:46:25;;;;;;;21.15;12.75;;;;;;;9.09;100.00;102594.84;5085923;28;20119;-79
2021/09/21 05:48:52;;;;;;;19.85;12.43;;;;;;;9.16;100.00;102603.19;5069780;28;20028;-81
2021/09/21 05:51:18;;;;;;;19.58;12.75;;;;;;;9.20;100.00;102609.09;5082912;28;20469;-80
2021/09/21 05:53:43;;;;;;;21.20;12.85;;;;;;;9.23;100.00;102606.25;5071678;28;20020;-80
2021/09/21 05:56:09;;;;;;;19.25;12.02;;;;;;;9.19;100.00;102600.38;5087610;28;20130;-81
2021/09/21 05:58:34;;;;;;;21.00;11.98;;;;;;;9.31;100.00;102617.97;5088677;28;20038;-80
2021/09/21 06:01:00;;;;;;;20.65;11.63;;;;;;;9.35;100.00;102611.63;5086429;28;20549;-80
2021/09/21 06:03:25;;;;;;;16.48;11.80;;;;;;;9.44;100.00;102620.69;5053026;28;20047;-79
2021/09/21 06:05:51;;;;;;;23.58;12.05;;;;;;;9.50;100.00;102615.09;5072366;28;20032;-79
2021/09/21 06:08:17;;;;;;;20.10;12.30;;;;;;;9.61;100.00;102616.22;5052897;28;20036;-80
2021/09/21 06:10:42;;;;;;;20.42;12.77;;;;;;;9.78;100.00;102623.03;5051704;28;20453;-80
2021/09/21 06:13:08;;;;;;;18.75;12.07;;;;;;;9.88;100.00;102619.72;5088792;28;20032;-79
2021/09/21 06:15:33;;;;;;;20.65;12.13;;;;;;;9.87;100.00;102623.31;5084363;28;20035;-82
2021/09/21 06:17:59;;;;;;;20.02;12.00;;;;;;;9.96;100.00;102634.97;5085444;28;20059;-81
2021/09/21 06:20:25;;;;;;;18.13;11.88;;;;;;;10.01;100.00;102635.53;5053163;28;20162;-79
2021/09/21 06:22:50;;;;;;;16.20;10.70;;;;;;;10.07;100.00;102640.38;5036686;28;20032;-80
2021/09/21 06:25:17;;;;;;;14.52;10.77;;;;;;;10.08;100.00;102643.88;5053424;28;20421;-81
2021/09/21 06:27:43;;;;;;;17.35;10.52;;;;;;;10.12;100.00;102645.34;5072311;28;20046;-80
2021/09/21 06:30:12;;;;;;;16.83;9.93;;;;;;;10.14;100.00;102649.56;5087009;28;20401;-79
2021/09/21 06:32:40;;;;;;;17.23;10.18;;;;;;;10.12;100.00;102646.19;5079615;28;20032;-81
2021/09/21 06:35:07;;;;;;;14.93;9.77;;;;;;;10.15;100.00;102647.75;5058505;28;20126;-81
2021/09/21 06:37:33;;;;;;;15.95;9.63;;;;;;;10.19;100.00;102643.16;5069247;28;20032;-79
2021/09/21 06:39:59;;;;;;;14.20;9.45;;;;;;;10.25;100.00;102640.19;5067913;28;20038;-80
2021/09/21 06:42:24;;;;;;;11.77;8.85;;;;;;;10.33;100.00;102648.41;5064166;28;20036;-80
2021/09/21 06:44:50;;;;;;;19.50;9.20;;;;;;;10.33;100.00;102651.03;5060645;28;20055;-80
2021/09/21 06:47:17;;;;;;;14.40;8.82;;;;;;;10.42;100.00;102655.69;5058045;28;20033;-81
2021/09/21 06:49:43;;;;;;;11.02;8.50;;;;;;;10.47;100.00;102655.38;5088537;28;20095;-79
2021/09/21 06:52:08;;;;;;;12.98;8.40;;;;;;;10.55;100.00;102663.63;5052846;28;20074;-81
2021/09/21 06:54:34;;;;;;;12.63;8.20;;;;;;;10.60;100.00;102652.81;5089310;28;20510;-81
2021/09/21 06:57:00;;;;;;;14.30;8.73;;;;;;;10.76;100.00;102665.81;5060996;28;20025;-80
2021/09/21 06:59:26;;;;;;;14.60;8.30;;;;;;;10.88;100.00;102663.19;5052055;28;20040;-80
2021/09/21 07:01:52;;;;;;;17.23;9.30;;;;;;;10.98;100.00;102663.44;5048652;28;20118;-80
2021/09/21 07:04:17;;;;;;;14.32;8.25;;;;;;;11.09;100.00;102667.94;5058377;28;20044;-80
2021/09/21 07:06:43;;;;;;;17.48;8.27;;;;;;;11.05;100.00;102659.44;5089522;28;20157;-81
2021/09/21 07:09:09;;;;;;;15.63;8.80;;;;;;;11.08;100.00;102647.91;5070361;28;20148;-81
2021/09/21 07:11:34;;;;;;;12.05;7.80;;;;;;;11.16;100.00;102658.72;5053937;28;20042;-79
2021/09/21 07:14:00;;;;;;;21.42;8.00;;;;;;;11.27;100.00;102676.38;5058221;28;20036;-79
2021/09/21 07:16:25;;;;;;;10.85;7.60;;;;;;;11.22;100.00;102678.47;5076181;28;20028;-80
2021/09/21 07:18:51;;;;;;;12.95;7.38;;;;;;;11.04;100.00;102683.19;5089930;28;20078;-79
2021/09/21 07:21:16;;;;;;;14.07;7.15;;;;;;;10.95;100.00;102689.88;5068303;28;20038;-80
2021/09/21 07:23:42;;;;;;;13.00;6.78;;;;;;;10.81;100.00;102688.19;5050042;28;20065;-78
2021/09/21 07:26:08;;;;;;;15.13;6.80;;;;;;;10.65;100.00;102685.69;5087344;28;20024;-79
2021/09/21 07:28:35;;;;;;;11.32;7.20;;;;;;;10.58;100.00;102687.03;5075067;28;20042;-82
2021/09/21 07:31:00;;;;;;;11.13;6.45;;;;;;;10.52;100.00;102680.38;5087924;28;20093;-79
2021/09/21 07:33:26;;;;;;;9.95;7.03;;;;;;;10.49;100.00;102679.75;5071525;28;20040;-82
2021/09/21 07:35:52;;;;;;;10.02;6.70;;;;;;;10.46;100.00;102685.22;5089978;28;20093;-81
2021/09/21 07:38:19;;;;;;;9.00;6.25;;;;;;;10.43;100.00;102693.25;5091902;28;20696;-82
2021/09/21 07:40:45;;;;;;;11.95;6.80;;;;;;;10.44;100.00;102692.34;5076181;28;20043;-79
2021/09/21 07:43:11;;;;;;;11.05;6.88;;;;;;;10.43;100.00;102691.47;5072632;28;20538;-81
2021/09/21 07:45:37;;;;;;;15.18;8.57;;;;;;;10.50;100.00;102684.91;5072037;28;20119;-78
2021/09/21 07:48:03;;;;;;;12.63;8.25;;;;;;;10.54;100.00;102693.41;5069873;28;20036;-81
2021/09/21 07:50:29;;;;;;;13.85;8.25;;;;;;;10.57;100.00;102692.38;5074352;28;20081;-81
2021/09/21 07:52:56;;;;;;;12.95;7.35;;;;;;;10.55;100.00;102700.38;5075460;28;20032;-80
2021/09/21 07:55:22;;;;;;;10.23;7.72;;;;;;;10.60;100.00;102707.94;5070193;28;20106;-80
2021/09/21 07:57:48;;;;;;;14.05;7.63;;;;;;;10.65;100.00;102711.09;5055105;28;20123;-81
2021/09/21 08:00:16;;;;;;;15.38;8.63;;;;;;;10.69;100.00;102708.16;5085039;28;20165;-79
2021/09/21 08:02:42;;;;;;;14.20;8.30;;;;;;;10.81;100.00;102708.31;5064976;28;20043;-80
2021/09/21 08:05:09;;;;;;;21.85;9.50;;;;;;;10.83;100.00;102716.94;5054879;28;20056;-80
2021/09/21 08:07:35;;;;;;;11.50;8.00;;;;;;;10.80;100.00;102698.78;5057786;28;20024;-81
2021/09/21 08:10:01;;;;;;;16.95;8.85;;;;;;;10.85;100.00;102705.41;5058222;28;20036;-82
2021/09/21 08:12:28;;;;;;;12.60;8.65;;;;;;;10.93;100.00;102711.94;5058673;28;20050;-82
2021/09/21 08:14:55;;;;;;;14.82;9.35;;;;;;;10.94;100.00;102711.81;5065892;28;20142;-82
2021/09/21 08:17:24;;;;;;;14.93;10.20;;;;;;;10.91;100.00;102720.75;5051038;28;20040;-81
2021/09/21 08:19:51;;;;;;;15.68;10.02;;;;;;;10.90;100.00;102712.97;5083883;28;20507;-82
2021/09/21 08:22:17;;;;;;;13.88;9.60;;;;;;;10.89;100.00;102712.13;5054384;28;20040;-80
2021/09/21 08:24:44;;;;;;;19.13;10.32;;;;;;;11.01;100.00;102713.09;5055326;28;20036;-82
2021/09/21 08:27:10;;;;;;;15.65;10.43;;;;;;;11.13;100.00;102710.59;5091894;28;20028;-81
2021/09/21 08:29:36;;;;;;;16.00;10.10;;;;;;;11.17;100.00;102701.56;5054765;28;20115;-79
2021/09/21 08:32:02;;;;;;;16.67;10.50;;;;;;;11.27;100.00;102707.91;5051826;28;20115;-80
2021/09/21 08:34:28;;;;;;;14.52;10.18;;;;;;;11.26;100.00;102709.72;5085205;28;20062;-81
2021/09/21 08:36:54;;;;;;;14.95;10.18;;;;;;;11.32;100.00;102699.72;5071279;28;20040;-81
2021/09/21 08:39:20;;;;;;;16.10;9.52;;;;;;;11.41;100.00;102705.19;5074477;28;20039;-79
2021/09/21 08:41:48;;;;;;;15.10;10.45;;;;;;;11.44;100.00;102701.53;5075888;28;20159;-81
2021/09/21 08:44:14;;;;;;;18.75;9.32;;;;;;;11.49;100.00;102694.16;5091459;28;20030;-82
2021/09/21 08:46:40;;;;;;;16.77;10.00;;;;;;;11.47;100.00;102696.03;5085867;28;20115;-81
2021/09/21 08:49:06;;;;;;;12.80;9.05;;;;;;;11.55;100.00;102698.16;5086157;28;20063;-82
2021/09/21 08:51:32;;;;;;;14.38;9.07;;;;;;;11.63;100.00;102690.59;5074355;28;20109;-81
2021/09/21 08:53:59;;;;;;;14.57;9.73;;;;;;;11.70;100.00;102683.97;5061320;28;20030;-80
2021/09/21 08:56:25;;;;;;;15.45;9.98;;;;;;;11.57;100.00;102683.13;5073180;28;20036;-81
2021/09/21 08:59:00;;;;;;;12.70;9.02;;;;;;;11.67;100.00;102686.78;5093558;28;20043;-80
2021/09/21 09:01:40;;;;;;;16.73;9.68;;;;;;;11.64;100.00;102690.50;5096846;28;20036;-80
2021/09/21 09:04:07;;;;;;;18.40;9.43;;;;;;;11.63;100.00;102694.03;5089989;28;20142;-81
2021/09/21 09:06:42;;;;;;;14.35;9.52;;;;;;;11.71;100.00;102684.81;5092597;28;20103;-80
2021/09/21 09:09:14;;;;;;;16.25;9.20;;;;;;;11.69;100.00;102683.09;5076892;28;20036;-80
2021/09/21 09:11:40;;;;;;;17.20;9.02;;;;;;;11.64;100.00;102681.75;5091246;28;20028;-81
2021/09/21 09:14:06;;;;;;;13.70;8.85;;;;;;;11.61;100.00;102671.47;5055584;28;20032;-81
2021/09/21 09:16:33;;;;;;;14.38;8.98;;;;;;;11.68;100.00;102663.03;5085939;28;20379;-81
2021/09/21 09:19:10;;;;;;;15.23;9.13;;;;;;;11.83;100.00;102678.69;5089446;28;20405;-81
2021/09/21 09:21:39;;;;;;;13.48;8.98;;;;;;;11.92;100.00;102687.75;5088263;28;20059;-82
2021/09/21 09:24:07;;;;;;;18.08;9.77;;;;;;;11.91;100.00;102689.53;5054721;28;20480;-80
2021/09/21 09:26:35;;;;;;;18.25;9.65;;;;;;;11.79;100.00;102685.97;5071799;28;20482;-79
2021/09/21 09:29:01;;;;;;;16.65;8.43;;;;;;;11.68;100.00;102704.25;5092350;28;20035;-79
2021/09/21 09:31:29;;;;;;;15.80;9.20;;;;;;;11.58;100.00;102705.81;5086604;28;20498;-83
2021/09/21 09:34:04;;;;;;;14.05;8.95;;;;;;;11.53;100.00;102695.63;5068852;28;20040;-79
2021/09/21 09:36:30;;;;;;;12.30;9.45;;;;;;;11.47;100.00;102707.41;5088410;28;20402;-81
2021/09/21 09:39:03;;;;;;;12.55;8.32;;;;;;;11.52;100.00;102695.75;5090871;28;20032;-80
2021/09/21 09:41:39;;;;;;;13.60;9.07;;;;;;;11.49;100.00;102702.06;5074658;28;20035;-82
2021/09/21 09:44:09;;;;;;;13.77;9.57;;;;;;;11.49;100.00;102696.81;5072327;28;20047;-80
2021/09/21 09:46:55;;;;;;;19.88;10.75;;;;;;;11.45;100.00;102696.16;5053719;28;20067;-81
2021/09/21 09:49:29;;;;;;;15.43;9.57;;;;;;;11.47;100.00;102696.91;5057301;28;20035;-81
2021/09/21 09:52:03;;;;;;;19.67;9.55;;;;;;;11.49;100.00;102691.53;5052436;28;20035;-82
2021/09/21 09:54:30;;;;;;;14.57;9.57;;;;;;;11.62;100.00;102694.16;5084636;28;20465;-81
2021/09/21 09:56:57;;;;;;;14.02;9.50;;;;;;;11.67;100.00;102685.00;5053440;28;20120;-78
2021/09/21 09:59:23;;;;;;;11.68;8.63;;;;;;;11.78;100.00;102683.44;5090173;28;20053;-80
2021/09/21 10:01:48;;;;;;;17.58;9.63;;;;;;;11.88;100.00;102690.56;5085664;28;20032;-80
2021/09/21 10:04:14;;;;;;;14.15;8.88;;;;;;;12.11;100.00;102688.16;5070425;28;20402;-81
2021/09/21 10:06:41;;;;;;;12.18;8.68;;;;;;;12.32;100.00;102692.78;5088076;28;20120;-81
2021/09/21 10:09:07;;;;;;;13.63;8.07;;;;;;;12.44;100.00;102682.22;5069920;28;20051;-81
2021/09/21 10:11:34;;;;;;;13.30;8.52;;;;;;;12.59;100.00;102684.72;5057178;28;20599;-81
2021/09/21 10:14:02;;;;;;;12.80;8.43;;;;;;;12.74;100.00;102682.75;5091524;28;20024;-80
2021/09/21 10:16:28;;;;;;;12.63;7.78;;;;;;;12.72;98.91;102679.38;5053987;28;20405;-81
2021/09/21 10:18:59;;;;;;;9.52;7.53;;;;;;;12.83;100.00;102684.69;5068784;28;20028;-80
2021/09/21 10:21:37;;;;;;;10.98;7.38;;;;;;;12.91;100.00;102681.50;5051571;28;20036;-80
2021/09/21 10:24:06;;;;;;;8.82;6.57;;;;;;;12.93;96.06;102680.41;5083145;28;20025;-80
2021/09/21 10:26:40;;;;;;;7.95;5.70;;;;;;;13.11;96.40;102675.56;5055654;28;20028;-80
2021/09/21 10:29:06;;;;;;;11.05;6.50;;;;;;;13.33;94.15;102663.41;5051473;28;20073;-79
2021/09/21 10:31:34;;;;;;;7.25;5.93;;;;;;;13.42;93.24;102668.81;5053153;28;20537;-82
2021/09/21 10:34:13;;;;;;;8.90;6.07;;;;;;;13.54;93.67;102666.19;5064057;28;20162;-80
2021/09/21 10:37:05;;;;;;;9.45;6.10;;;;;;;13.73;94.40;102658.53;5068726;28;20036;-82
2021/09/21 10:39:31;;;;;;;11.80;5.67;;;;;;;13.76;94.13;102663.56;5080986;28;20051;-82
2021/09/21 10:42:04;;;;;;;11.02;5.65;;;;;;;13.79;99.63;102662.50;5073142;28;20729;-80
2021/09/21 10:44:31;;;;;;;12.45;5.70;;;;;;;13.70;96.11;102656.13;5068322;28;20575;-81
2021/09/21 10:47:06;;;;;;;10.30;5.10;;;;;;;13.72;98.13;102669.19;5085913;28;20409;-80
2021/09/21 10:49:40;;;;;;;8.60;5.20;;;;;;;13.83;97.94;102664.75;5086669;28;20035;-81
2021/09/21 10:52:09;;;;;;;7.63;4.55;;;;;;;13.97;98.35;102676.00;5089377;28;20036;-80
2021/09/21 10:54:39;;;;;;;7.55;4.65;;;;;;;14.04;95.67;102669.28;5071980;28;20049;-79
2021/09/21 10:57:16;;;;;;;7.30;4.40;;;;;;;14.03;99.73;102672.88;5093504;28;20024;-79
2021/09/21 10:59:55;;;;;;;7.15;4.20;;;;;;;14.02;98.64;102669.41;5071371;28;20123;-78
2021/09/21 11:02:23;;;;;;;6.53;4.70;;;;;;;14.06;98.40;102667.38;5074264;28;20066;-80
2021/09/21 11:04:49;;;;;;;6.22;4.82;;;;;;;14.09;97.42;102664.50;5086395;28;20039;-81
2021/09/21 11:07:15;;;;;;;7.00;4.70;;;;;;;14.17;98.34;102651.50;5066063;28;20032;-79
2021/09/21 11:09:41;;;;;;;8.30;4.93;;;;;;;14.27;98.10;102648.97;5071528;28;20078;-80
2021/09/21 11:12:11;;;;;;;6.82;4.55;;;;;;;14.28;96.98;102648.00;5088270;28;20052;-81
2021/09/21 11:14:42;;;;;;;9.27;4.65;;;;;;;14.35;98.36;102648.34;5072060;28;20036;-81
2021/09/21 11:17:10;;;;;;;6.43;4.55;;;;;;;14.41;97.05;102648.69;5071784;28;20036;-79
2021/09/21 11:19:37;;;;;;;8.05;5.35;;;;;;;14.42;97.29;102638.97;5086946;28;20042;-81